Time;durP1;ratioP1;P1;durP2;ratioP2;P2;SDS_P1;SDS_P2;PMS_P1;PMS_P2;Temp;Humidity;BMP_temperature;BMP_pressure;BME280_temperature;BME280_humidity;BME280_pressure;Samples;Min_cycle;Max_cycle;Signal;HPM_P1;HPM_P2
2021/12/04 00:00:37;;;;;;;;;2.25;2.25;;;;;11.49;74.50;99467.00;5022355;28;45176;-68
2021/12/04 00:03:04;;;;;;;;;2.00;2.00;;;;;11.56;74.73;99469.28;5022040;28;45331;-68
2021/12/04 00:05:29;;;;;;;;;3.25;2.50;;;;;11.59;74.62;99461.09;5022073;28;45301;-68
2021/12/04 00:07:55;;;;;;;;;1.00;1.00;;;;;11.56;74.76;99446.13;5021958;28;45239;-68
2021/12/04 00:10:27;;;;;;;;;0.75;0.75;;;;;11.58;74.37;99446.03;5021989;28;45370;-68
2021/12/04 00:12:53;;;;;;;;;0.00;0.00;;;;;11.62;74.31;99443.06;5021597;28;45421;-68
2021/12/04 00:15:18;;;;;;;;;0.00;0.00;;;;;11.70;74.41;99441.78;5021793;28;45590;-68
2021/12/04 00:17:44;;;;;;;;;2.50;0.00;;;;;11.70;75.08;99425.75;5021755;28;45374;-68
2021/12/04 00:20:10;;;;;;;;;0.00;0.00;;;;;11.76;74.76;99428.06;5021849;28;45310;-69
2021/12/04 00:22:36;;;;;;;;;0.00;0.00;;;;;11.79;74.65;99425.19;5021744;28;45247;-68
2021/12/04 00:25:02;;;;;;;;;0.50;0.00;;;;;11.78;75.00;99413.66;5021756;28;47104;-69
2021/12/04 00:27:28;;;;;;;;;0.00;0.00;;;;;11.83;75.31;99414.25;5021523;28;45331;-68
2021/12/04 00:29:53;;;;;;;;;0.00;0.00;;;;;11.87;75.24;99420.28;5021527;28;45610;-69
2021/12/04 00:32:28;;;;;;;;;0.00;0.00;;;;;11.84;75.50;99399.94;5021612;28;45723;-69
2021/12/04 00:35:05;;;;;;;;;0.00;0.00;;;;;11.93;75.43;99419.06;5021667;28;47137;-68
2021/12/04 00:50:52;;;;;;;;;0.00;0.00;;;;;12.09;76.01;99401.16;5021674;28;45239;-68
2021/12/04 00:53:17;;;;;;;;;0.00;0.00;;;;;12.12;75.87;99402.81;5020023;28;45545;-68
2021/12/04 00:55:43;;;;;;;;;0.00;0.00;;;;;12.15;75.95;99395.44;5021251;28;45430;-69
2021/12/04 00:58:08;;;;;;;;;0.00;0.00;;;;;12.10;76.09;99384.16;5020944;28;45385;-68
2021/12/04 01:00:34;;;;;;;;;0.00;0.00;;;;;12.21;75.95;99404.91;5021472;28;45209;-68
2021/12/04 01:02:59;;;;;;;;;0.00;0.00;;;;;12.25;75.94;99394.91;5021070;28;45207;-68
2021/12/04 01:05:25;;;;;;;;;0.00;0.00;;;;;12.22;76.05;99394.13;5021301;28;45206;-68
2021/12/04 01:07:50;;;;;;;;;0.00;0.00;;;;;12.30;76.20;99399.00;5020948;28;45223;-68
2021/12/04 01:10:15;;;;;;;;;0.00;0.00;;;;;12.30;75.87;99396.34;5021091;28;45220;-68
2021/12/04 01:12:41;;;;;;;;;0.00;0.00;;;;;12.33;76.06;99387.25;5020682;28;45446;-68
2021/12/04 01:15:07;;;;;;;;;0.00;0.00;;;;;12.36;76.17;99393.28;5020938;28;46148;-68
2021/12/04 01:17:32;;;;;;;;;0.00;0.00;;;;;12.42;76.04;99394.72;5020955;28;45473;-68
2021/12/04 01:19:58;;;;;;;;;0.00;0.00;;;;;12.39;76.08;99393.09;5021160;28;45316;-68
2021/12/04 01:22:25;;;;;;;;;0.00;0.00;;;;;12.44;76.10;99394.63;5020913;28;45598;-68
2021/12/04 01:24:50;;;;;;;;;0.00;0.00;;;;;12.48;76.20;99397.03;5020856;28;46995;-68
2021/12/04 01:27:15;;;;;;;;;0.00;0.00;;;;;12.51;76.08;99402.19;5020637;28;45365;-68
2021/12/04 01:29:42;;;;;;;;;0.00;0.00;;;;;12.52;76.18;99392.34;5020859;28;45323;-68
2021/12/04 01:32:09;;;;;;;;;0.00;0.00;;;;;12.58;76.33;99390.16;5020564;28;46406;-68
2021/12/04 01:34:35;;;;;;;;;0.00;0.00;;;;;12.61;75.67;99394.44;5020719;28;46077;-68
2021/12/04 01:37:02;;;;;;;;;0.00;0.00;;;;;12.63;76.25;99388.97;5020583;28;45505;-68
2021/12/04 01:39:27;;;;;;;;;0.00;0.00;;;;;12.65;75.95;99395.13;5020753;28;46573;-68
2021/12/04 01:41:53;;;;;;;;;0.00;0.00;;;;;12.67;75.92;99390.53;5020342;28;45401;-68
2021/12/04 01:44:18;;;;;;;;;0.00;0.00;;;;;12.70;75.68;99403.72;5020111;28;53072;-68
2021/12/04 01:46:43;;;;;;;;;0.00;0.00;;;;;12.73;75.97;99399.03;5020364;28;45401;-68
2021/12/04 01:49:09;;;;;;;;;0.00;0.00;;;;;12.68;76.12;99393.13;5020696;28;45389;-68
2021/12/04 01:51:34;;;;;;;;;0.00;0.00;;;;;12.73;76.14;99407.06;5020263;28;45551;-69
2021/12/04 01:53:59;;;;;;;;;0.00;0.00;;;;;12.69;76.40;99394.81;5020537;28;45402;-68
2021/12/04 01:56:29;;;;;;;;;0.00;0.00;;;;;12.76;76.16;99401.53;5020287;28;45397;-68
2021/12/04 01:58:55;;;;;;;;;0.00;0.00;;;;;12.81;75.93;99408.41;5020395;28;45292;-69
2021/12/04 02:01:20;;;;;;;;;0.00;0.00;;;;;12.82;76.48;99404.78;5020331;28;45415;-68
2021/12/04 02:03:46;;;;;;;;;0.00;0.00;;;;;12.82;76.10;99399.41;5019980;28;46590;-68
2021/12/04 02:06:12;;;;;;;;;0.00;0.00;;;;;12.89;76.02;99408.78;5020255;28;45203;-68
2021/12/04 02:08:38;;;;;;;;;0.00;0.00;;;;;12.91;76.01;99413.09;5020355;28;45371;-69
2021/12/04 02:11:03;;;;;;;;;0.00;0.00;;;;;12.92;75.97;99409.44;5020109;28;45230;-69
2021/12/04 02:13:29;;;;;;;;;0.00;0.00;;;;;12.95;76.13;99408.41;5019802;28;46850;-68
2021/12/04 02:15:55;;;;;;;;;0.00;0.00;;;;;12.98;75.73;99413.56;5020085;28;45426;-69
2021/12/04 02:18:22;;;;;;;;;0.00;0.00;;;;;13.00;75.64;99413.44;5020502;28;45295;-69
2021/12/04 02:20:48;;;;;;;;;0.00;0.00;;;;;13.03;75.75;99408.78;5020029;28;45303;-68
2021/12/04 02:23:14;;;;;;;;;0.00;0.00;;;;;13.02;75.76;99392.78;5020086;28;45217;-68
2021/12/04 02:25:40;;;;;;;;;1.00;0.00;;;;;13.03;75.88;99400.75;5019724;28;45180;-68
2021/12/04 02:28:08;;;;;;;;;0.00;0.00;;;;;13.03;75.81;99398.06;5019928;28;45306;-69
2021/12/04 02:30:36;;;;;;;;;0.00;0.00;;;;;13.07;75.67;99407.59;5019907;28;45437;-68
2021/12/04 02:33:11;;;;;;;;;0.00;0.00;;;;;13.11;75.39;99416.31;5020011;28;45477;-69
2021/12/04 02:35:41;;;;;;;;;0.00;0.00;;;;;13.11;75.46;99409.16;5019771;28;45306;-68
2021/12/04 02:38:06;;;;;;;;;0.00;0.00;;;;;13.07;75.45;99410.28;5020027;28;45314;-69
2021/12/04 02:40:32;;;;;;;;;1.00;0.00;;;;;13.10;75.42;99409.25;5019418;28;45429;-69
2021/12/04 02:42:57;;;;;;;;;0.00;0.00;;;;;13.18;75.55;99423.00;5019569;28;46095;-69
2021/12/04 02:45:23;;;;;;;;;0.50;0.00;;;;;13.20;75.48;99413.03;5019525;28;45352;-69
2021/12/04 02:47:48;;;;;;;;;0.00;0.00;;;;;13.21;75.60;99422.78;5019938;28;45388;-68
2021/12/04 02:50:14;;;;;;;;;0.00;0.00;;;;;13.17;75.62;99405.19;5019334;28;45577;-69
2021/12/04 02:52:40;;;;;;;;;0.00;0.00;;;;;13.17;75.46;99410.56;5019592;28;46130;-69
2021/12/04 02:55:06;;;;;;;;;0.00;0.00;;;;;13.22;75.48;99416.47;5019370;28;45296;-69
2021/12/04 02:57:35;;;;;;;;;0.00;0.00;;;;;13.21;75.08;99412.06;5019486;28;45346;-69
2021/12/04 03:00:01;;;;;;;;;0.00;0.00;;;;;13.27;75.26;99421.53;5019601;28;45161;-69
2021/12/04 03:02:26;;;;;;;;;0.00;0.00;;;;;13.30;74.79;99422.19;5019426;28;45406;-69
2021/12/04 03:04:58;;;;;;;;;0.00;0.00;;;;;13.32;74.98;99425.66;5019544;28;45357;-69
2021/12/04 03:07:24;;;;;;;;;0.00;0.00;;;;;13.33;74.89;99430.09;5019580;28;45242;-69
2021/12/04 03:09:50;;;;;;;;;0.00;0.00;;;;;13.34;75.08;99434.47;5019436;28;45518;-69
2021/12/04 03:12:23;;;;;;;;;0.00;0.00;;;;;13.34;75.07;99418.38;5019334;28;46175;-69
2021/12/04 03:14:48;;;;;;;;;0.00;0.00;;;;;13.36;75.08;99412.94;5007661;28;45174;-69
2021/12/04 03:17:17;;;;;;;;;0.00;0.00;;;;;13.38;74.82;99423.56;5023057;28;45234;-69
2021/12/04 03:19:43;;;;;;;;;0.00;0.00;;;;;13.36;74.95;99420.13;5022966;28;45402;-69
2021/12/04 03:22:08;;;;;;;;;0.00;0.00;;;;;13.39;74.95;99412.72;5022712;28;46342;-69
2021/12/04 03:24:37;;;;;;;;;0.00;0.00;;;;;13.41;74.95;99416.16;5022809;28;45421;-69
2021/12/04 03:27:03;;;;;;;;;0.00;0.00;;;;;13.40;75.00;99422.50;5022715;28;45449;-69
2021/12/04 03:29:31;;;;;;;;;0.00;0.00;;;;;13.38;74.99;99415.50;5022543;28;45176;-69
2021/12/04 03:32:14;;;;;;;;;1.00;0.00;;;;;13.39;75.01;99414.56;5022352;28;47385;-69
2021/12/04 03:42:36;;;;;;;;;0.75;0.00;;;;;13.45;74.71;99403.44;5022316;28;45414;-69
2021/12/04 03:45:04;;;;;;;;;0.00;0.00;;;;;13.44;74.45;99407.94;5022223;28;45476;-69
2021/12/04 03:47:30;;;;;;;;;0.00;0.00;;;;;13.40;74.53;99398.38;5022493;28;45359;-69
2021/12/04 03:49:56;;;;;;;;;0.00;0.00;;;;;13.44;74.42;99404.41;5021969;28;45347;-69
2021/12/04 03:52:21;;;;;;;;;0.00;0.00;;;;;13.44;74.22;99407.06;5022428;28;45378;-69
2021/12/04 03:54:46;;;;;;;;;0.00;0.00;;;;;13.45;74.07;99403.44;5022185;28;45600;-69
2021/12/04 03:57:12;;;;;;;;;0.00;0.00;;;;;13.38;74.10;99396.75;5022491;28;45204;-69
2021/12/04 03:59:45;;;;;;;;;1.00;0.00;;;;;13.46;74.10;99403.31;5021907;28;45272;-69
2021/12/04 04:02:13;;;;;;;;;0.00;0.00;;;;;13.44;73.97;99407.06;5022153;28;45386;-69
2021/12/04 04:04:39;;;;;;;;;0.00;0.00;;;;;13.48;74.23;99408.59;5022105;28;45440;-69
2021/12/04 04:07:06;;;;;;;;;0.00;0.00;;;;;13.46;74.31;99397.97;5022327;28;45249;-69
2021/12/04 04:09:32;;;;;;;;;0.00;0.00;;;;;13.49;73.94;99407.63;5021885;28;45260;-69
2021/12/04 04:11:58;;;;;;;;;1.00;0.00;;;;;13.52;73.84;99407.44;5021823;28;46265;-69
2021/12/04 04:14:24;;;;;;;;;1.00;0.00;;;;;13.54;73.93;99413.53;5021493;28;45324;-69
2021/12/04 04:16:51;;;;;;;;;0.00;0.00;;;;;13.51;73.89;99411.06;5022217;28;45410;-69
2021/12/04 04:19:16;;;;;;;;;0.00;0.00;;;;;13.51;73.88;99411.06;5021876;28;45535;-69
2021/12/04 04:21:42;;;;;;;;;0.00;0.00;;;;;13.55;73.83;99414.41;5021774;28;46225;-69
2021/12/04 04:24:14;;;;;;;;;0.00;0.00;;;;;13.53;74.03;99406.47;5021669;28;45329;-69
2021/12/04 04:26:42;;;;;;;;;0.00;0.00;;;;;13.54;73.90;99402.81;5021742;28;45301;-69
2021/12/04 04:29:08;;;;;;;;;0.00;0.00;;;;;13.54;73.87;99402.81;5021313;28;45461;-69
2021/12/04 04:31:35;;;;;;;;;0.00;0.00;;;;;13.58;73.78;99401.69;5021619;28;47078;-69
2021/12/04 04:34:05;;;;;;;;;0.00;0.00;;;;;13.59;73.61;99400.69;5021754;28;45485;-69
2021/12/04 04:39:14;;;;;;;;;0.00;0.00;;;;;13.61;73.71;99412.16;5021683;28;45338;-69
2021/12/04 04:58:16;;;;;;;;;0.00;0.00;;;;;13.56;73.31;99397.38;5021137;28;45260;-69
2021/12/04 05:00:58;;;;;;;;;1.00;0.00;;;;;13.58;73.47;99400.78;5021250;28;45386;-69
2021/12/04 05:11:44;;;;;;;;;0.00;0.00;;;;;13.56;73.02;99370.56;5021211;28;45207;-69
2021/12/04 05:14:16;;;;;;;;;0.00;0.00;;;;;13.59;73.09;99379.25;5020604;28;46024;-69
2021/12/04 05:16:45;;;;;;;;;1.00;0.00;;;;;13.56;73.04;99383.97;5020971;28;45593;-69
2021/12/04 05:19:26;;;;;;;;;0.00;0.00;;;;;13.58;72.75;99387.38;5020935;28;45406;-69
2021/12/04 05:21:51;;;;;;;;;0.00;0.00;;;;;13.59;72.75;99381.94;5020974;28;45428;-69
2021/12/04 05:24:17;;;;;;;;;0.00;0.00;;;;;13.55;72.73;99377.75;5020908;28;45536;-69
2021/12/04 05:26:42;;;;;;;;;0.00;0.00;;;;;13.59;72.79;99381.09;5020894;28;45531;-69
2021/12/04 05:29:07;;;;;;;;;0.00;0.00;;;;;13.58;72.77;99380.22;5020645;28;45375;-69
2021/12/04 05:31:33;;;;;;;;;0.75;0.00;;;;;13.55;72.75;99375.06;5020828;28;45302;-69
2021/12/04 05:33:58;;;;;;;;;0.00;0.00;;;;;13.55;72.59;99376.88;5036042;28;46263;-69
2021/12/04 05:36:24;;;;;;;;;0.00;0.00;;;;;13.59;72.82;99381.09;5020732;28;45417;-69
2021/12/04 05:38:49;;;;;;;;;0.00;0.00;;;;;13.58;72.80;99380.22;5020162;28;45381;-69
2021/12/04 05:41:16;;;;;;;;;0.00;0.00;;;;;13.58;72.52;99374.88;5020678;28;45216;-69
2021/12/04 05:43:42;;;;;;;;;0.00;0.00;;;;;13.59;72.50;99368.53;5020223;28;46242;-69
2021/12/04 05:46:15;;;;;;;;;0.00;0.00;;;;;13.60;72.49;99369.38;5020622;28;45420;-69
2021/12/04 05:53:54;;;;;;;;;0.00;0.00;;;;;13.64;72.47;99381.63;5020255;28;45867;-69
2021/12/04 05:56:20;;;;;;;;;0.00;0.00;;;;;13.68;72.44;99385.81;5020359;28;45169;-69
2021/12/04 05:58:47;;;;;;;;;0.00;0.00;;;;;13.67;72.30;99395.69;5020368;28;45280;-69
2021/12/04 06:01:13;;;;;;;;;0.00;0.00;;;;;13.68;72.38;99389.38;5020447;28;45364;-69
2021/12/04 06:03:38;;;;;;;;;0.00;0.00;;;;;13.65;72.17;99378.00;5020328;28;46534;-69
2021/12/04 06:06:04;;;;;;;;;1.50;0.00;;;;;13.67;72.34;99384.97;5020186;28;45319;-69
2021/12/04 06:08:30;;;;;;;;;0.00;0.00;;;;;13.68;72.14;99380.44;5020368;28;45334;-69
2021/12/04 06:10:56;;;;;;;;;0.00;0.00;;;;;13.70;72.09;99383.91;5020056;28;45306;-69
2021/12/04 06:13:23;;;;;;;;;1.00;0.00;;;;;13.69;72.26;99379.50;5019852;28;46341;-69
2021/12/04 06:15:48;;;;;;;;;0.00;0.00;;;;;13.68;72.35;99384.00;5019967;28;45338;-69
2021/12/04 06:18:16;;;;;;;;;0.00;0.00;;;;;13.66;72.08;99377.88;5020301;28;45327;-70
2021/12/04 06:23:26;;;;;;;;;0.00;0.00;;;;;13.62;72.08;99368.31;5020185;28;45319;-69
2021/12/04 06:25:52;;;;;;;;;0.00;0.00;;;;;13.66;72.16;99369.81;5019705;28;45350;-69
2021/12/04 06:28:17;;;;;;;;;0.00;0.00;;;;;13.67;72.10;99370.69;5019940;28;45342;-69
2021/12/04 06:30:44;;;;;;;;;1.00;0.00;;;;;13.67;72.00;99368.88;5019789;28;45493;-69
2021/12/04 06:33:11;;;;;;;;;0.00;0.00;;;;;13.68;71.81;99356.31;5020095;28;45481;-69
2021/12/04 06:35:41;;;;;;;;;0.00;0.00;;;;;13.64;72.05;99344.94;5019948;28;45393;-69
2021/12/04 06:38:11;;;;;;;;;0.00;0.00;;;;;13.68;72.01;99357.19;5019998;28;45386;-69
2021/12/04 06:40:38;;;;;;;;;0.00;0.00;;;;;13.69;72.06;99353.53;5019644;28;45494;-69
2021/12/04 06:43:06;;;;;;;;;0.00;0.00;;;;;13.71;71.91;99348.06;5019543;28;45462;-69
2021/12/04 06:45:34;;;;;;;;;0.00;0.00;;;;;13.68;71.82;99354.50;5019597;28;45319;-69
2021/12/04 06:48:07;;;;;;;;;0.00;0.00;;;;;13.70;71.97;99357.09;5019747;28;45325;-69
2021/12/04 06:50:44;;;;;;;;;0.00;0.00;;;;;13.70;71.88;99352.59;5020821;28;45340;-69
2021/12/04 06:55:48;;;;;;;;;0.00;0.00;;;;;13.66;72.08;99352.88;5023168;28;45316;-69
2021/12/04 06:58:14;;;;;;;;;0.00;0.00;;;;;13.69;72.01;99353.53;5023014;28;45294;-69
2021/12/04 07:00:39;;;;;;;;;0.75;0.00;;;;;13.63;71.95;99335.19;5023214;28;45446;-69
2021/12/04 07:03:05;;;;;;;;;0.75;0.75;;;;;13.69;72.22;99347.31;5022957;28;46012;-69
2021/12/04 07:05:31;;;;;;;;;0.00;0.00;;;;;13.66;72.14;99334.97;5023245;28;45316;-69
2021/12/04 07:07:56;;;;;;;;;0.00;0.00;;;;;13.69;72.04;99340.13;5023110;28;45475;-69
2021/12/04 07:10:22;;;;;;;;;1.00;0.00;;;;;13.65;72.30;99330.59;5022676;28;45231;-69
2021/12/04 07:12:47;;;;;;;;;0.00;0.00;;;;;13.66;72.35;99343.00;5022401;28;46241;-69
2021/12/04 07:15:13;;;;;;;;;0.75;0.00;;;;;13.70;72.19;99331.13;5023102;28;45359;-69
2021/12/04 07:17:39;;;;;;;;;0.00;0.00;;;;;13.69;72.47;99324.03;5022833;28;45263;-69
2021/12/04 07:20:07;;;;;;;;;5.75;5.75;;;;;13.70;72.68;99324.91;5022739;28;45429;-69
2021/12/04 07:22:33;;;;;;;;;1.50;1.50;;;;;13.71;72.80;99332.84;5022681;28;45467;-69
2021/12/04 07:24:59;;;;;;;;;0.25;0.25;;;;;13.70;72.57;99323.09;5022824;28;45456;-69
2021/12/04 07:27:25;;;;;;;;;0.00;0.00;;;;;13.68;72.49;99308.06;5022397;28;45339;-69
2021/12/04 07:29:50;;;;;;;;;0.00;0.00;;;;;13.71;72.21;99323.94;5022540;28;45161;-69
2021/12/04 07:32:15;;;;;;;;;0.00;0.00;;;;;13.72;72.37;99325.66;5022595;28;46312;-69
2021/12/04 07:34:41;;;;;;;;;0.50;0.50;;;;;13.72;72.87;99320.31;5022648;28;45149;-69
2021/12/04 07:37:06;;;;;;;;;0.00;0.00;;;;;13.71;72.64;99310.53;5022705;28;45272;-69
2021/12/04 07:39:32;;;;;;;;;0.25;0.00;;;;;13.68;72.78;99318.78;5022724;28;45243;-69
2021/12/04 07:41:57;;;;;;;;;2.00;2.00;;;;;13.73;72.48;99335.41;5021998;28;46898;-69
2021/12/04 07:44:23;;;;;;;;;1.00;1.00;;;;;13.68;72.65;99325.03;5022044;28;45264;-69
2021/12/04 07:46:48;;;;;;;;;1.50;1.00;;;;;13.71;73.01;99326.63;5022248;28;45333;-69
2021/12/04 07:49:14;;;;;;;;;2.25;1.50;;;;;13.71;72.82;99335.53;5022325;28;45402;-69
2021/12/04 07:51:39;;;;;;;;;0.50;0.50;;;;;13.70;72.85;99339.19;5022057;28;45410;-69
2021/12/04 07:54:04;;;;;;;;;0.50;0.50;;;;;13.63;72.98;99321.78;5022373;28;45335;-69
2021/12/04 07:56:30;;;;;;;;;0.00;0.00;;;;;13.68;72.80;99329.50;5022291;28;45406;-69
2021/12/04 07:58:55;;;;;;;;;0.00;0.00;;;;;13.65;73.44;99329.72;5022202;28;45286;-69
2021/12/04 08:01:21;;;;;;;;;0.00;0.00;;;;;13.66;73.04;99345.69;5021656;28;46201;-69
2021/12/04 08:03:46;;;;;;;;;0.00;0.00;;;;;13.66;73.11;99334.97;5022371;28;45433;-69
2021/12/04 08:06:12;;;;;;;;;0.00;0.00;;;;;13.61;73.29;99331.75;5022152;28;45758;-69
2021/12/04 08:08:37;;;;;;;;;0.00;0.00;;;;;13.59;73.15;99328.31;5022256;28;45367;-69
2021/12/04 08:11:04;;;;;;;;;0.75;0.00;;;;;13.66;73.38;99347.53;5021693;28;45242;-69
2021/12/04 08:13:30;;;;;;;;;0.00;0.00;;;;;13.64;73.01;99350.31;5021743;28;45482;-69
2021/12/04 08:15:55;;;;;;;;;0.00;0.00;;;;;13.62;72.91;99338.84;5022032;28;45296;-69
2021/12/04 08:18:21;;;;;;;;;0.00;0.00;;;;;13.62;73.02;99336.16;5022077;28;45145;-69
2021/12/04 08:20:47;;;;;;;;;0.00;0.00;;;;;13.63;73.22;99345.03;5021688;28;46051;-69
2021/12/04 08:23:13;;;;;;;;;0.00;0.00;;;;;13.59;73.05;99352.44;5022021;28;45350;-69
2021/12/04 08:25:38;;;;;;;;;0.00;0.00;;;;;13.56;72.98;99355.31;5021772;28;45310;-69
2021/12/04 08:28:04;;;;;;;;;0.00;0.00;;;;;13.52;72.94;99359.19;5021732;28;45402;-69
2021/12/04 08:30:33;;;;;;;;;0.00;0.00;;;;;13.59;72.99;99373.03;5021440;28;45285;-69
2021/12/04 08:32:59;;;;;;;;;0.00;0.00;;;;;13.54;73.09;99370.66;5021847;28;45416;-69
2021/12/04 08:35:28;;;;;;;;;0.00;0.00;;;;;13.58;72.99;99374.00;5021804;28;45227;-69
2021/12/04 08:37:58;;;;;;;;;0.00;0.00;;;;;13.53;72.86;99374.28;5021715;28;45490;-69
2021/12/04 08:40:24;;;;;;;;;0.00;0.00;;;;;13.55;72.95;99385.78;5021136;28;45431;-70
2021/12/04 08:42:49;;;;;;;;;0.00;0.00;;;;;13.52;72.63;99386.84;5021530;28;45211;-69
2021/12/04 08:45:17;;;;;;;;;0.00;0.00;;;;;13.55;72.26;99382.22;5021417;28;45609;-69
2021/12/04 08:47:43;;;;;;;;;0.75;0.00;;;;;13.54;72.43;99394.78;5021421;28;45657;-69
2021/12/04 08:50:14;;;;;;;;;0.00;0.00;;;;;13.56;72.02;99392.00;5021080;28;45558;-69
2021/12/04 08:52:40;;;;;;;;;0.00;0.00;;;;;13.49;71.93;99380.81;5021242;28;45422;-69
2021/12/04 08:55:06;;;;;;;;;0.00;0.00;;;;;13.49;71.95;99388.88;5021192;28;45185;-69
2021/12/04 08:57:31;;;;;;;;;0.00;0.00;;;;;13.46;71.84;99397.97;5021259;28;45318;-69
2021/12/04 08:59:57;;;;;;;;;0.00;0.00;;;;;13.47;71.68;99413.09;5021028;28;45379;-69
2021/12/04 09:02:23;;;;;;;;;0.00;0.00;;;;;13.41;71.67;99402.75;5021433;28;45488;-69
2021/12/04 09:04:49;;;;;;;;;0.00;0.00;;;;;13.46;71.61;99423.91;5021227;28;45499;-69
2021/12/04 09:07:15;;;;;;;;;1.00;0.00;;;;;13.39;71.11;99427.97;5021240;28;45313;-69
2021/12/04 09:09:41;;;;;;;;;0.00;0.00;;;;;13.39;70.87;99438.69;5020834;28;47055;-69
2021/12/04 09:12:09;;;;;;;;;0.00;0.00;;;;;13.32;70.56;99431.03;5020576;28;45321;-69
2021/12/04 09:14:37;;;;;;;;;0.00;0.00;;;;;13.29;70.22;99428.50;5020321;28;45498;-69
2021/12/04 09:17:06;;;;;;;;;0.00;0.00;;;;;13.31;69.82;99442.69;5021097;28;45457;-69
2021/12/04 09:19:32;;;;;;;;;1.00;0.00;;;;;13.28;70.07;99445.56;5021069;28;45326;-69
2021/12/04 09:21:58;;;;;;;;;0.00;0.00;;;;;13.25;69.75;99469.03;5021116;28;45524;-69
2021/12/04 09:24:27;;;;;;;;;0.00;0.00;;;;;13.23;69.19;99461.09;5021130;28;45449;-69
2021/12/04 10:24:01;;;;;;;;;1.00;1.00;;;;;12.82;66.80;99525.28;5018805;28;46144;-70
2021/12/04 10:34:50;;;;;;;;;0.00;0.00;;;;;12.77;66.26;99549.66;5019931;28;46133;-70
2021/12/04 10:37:23;;;;;;;;;0.00;0.00;;;;;12.77;66.51;99550.50;5019764;28;45332;-70
2021/12/04 10:39:50;;;;;;;;;0.00;0.00;;;;;12.77;66.32;99549.66;5019891;28;45315;-70
2021/12/04 10:42:20;;;;;;;;;0.00;0.00;;;;;12.78;66.20;99551.38;5019459;28;46152;-70
2021/12/04 10:44:53;;;;;;;;;1.00;0.00;;;;;12.76;66.19;99540.78;5019734;28;45340;-70
2021/12/04 10:47:24;;;;;;;;;0.00;0.00;;;;;12.74;65.79;99548.00;5019963;28;45332;-70
2021/12/04 10:55:26;;;;;;;;;0.00;0.00;;;;;12.70;66.06;99562.56;5019289;28;46038;-70
2021/12/04 11:01:08;;;;;;;;;0.00;0.00;;;;;12.69;65.50;99551.94;5019800;28;45160;-70
2021/12/04 11:22:23;;;;;;;;;0.00;0.00;;;;;12.70;66.73;99581.28;5019448;28;45314;-70
2021/12/04 11:38:41;;;;;;;;;1.00;1.00;;;;;12.69;67.41;99614.34;5022523;28;46051;-70
2021/12/04 11:44:13;;;;;;;;;0.00;0.00;;;;;12.60;67.03;99628.31;5017417;28;45401;-70
2021/12/04 11:46:45;;;;;;;;;0.00;0.00;;;;;12.53;67.22;99625.13;5022507;28;45451;-70
2021/12/04 11:49:13;;;;;;;;;0.25;0.25;;;;;12.40;67.21;99633.00;5022228;28;46065;-69
2021/12/04 11:52:00;;;;;;;;;1.50;1.00;;;;;12.29;67.53;99632.75;5022130;28;45484;-70
2021/12/04 11:54:42;;;;;;;;;0.75;0.75;;;;;12.31;67.22;99629.97;5022707;28;45331;-70
2021/12/04 11:57:10;;;;;;;;;0.25;0.25;;;;;12.27;67.09;99640.00;5022082;28;45170;-70
2021/12/04 11:59:39;;;;;;;;;1.00;1.00;;;;;12.23;67.69;99643.81;5022071;28;45295;-70
2021/12/04 12:02:08;;;;;;;;;2.25;2.00;;;;;12.23;67.21;99633.97;5022213;28;45456;-70
2021/12/04 12:04:35;;;;;;;;;1.00;0.75;;;;;12.22;67.49;99636.72;5022184;28;45296;-70
2021/12/04 12:07:11;;;;;;;;;3.25;2.00;;;;;12.20;67.27;99643.97;5022376;28;45344;-70
2021/12/04 12:09:39;;;;;;;;;1.00;1.00;;;;;12.17;66.62;99642.34;5021962;28;46304;-70
2021/12/04 12:12:06;;;;;;;;;1.00;1.00;;;;;12.09;66.90;99649.06;5021806;28;45489;-70
2021/12/04 12:14:41;;;;;;;;;2.75;1.75;;;;;12.10;67.10;99657.00;5021838;28;45393;-70
2021/12/04 12:17:08;;;;;;;;;2.50;1.75;;;;;12.08;67.16;99660.69;5021996;28;45414;-70
2021/12/04 12:19:42;;;;;;;;;1.00;1.00;;;;;12.07;66.85;99653.66;5021980;28;45389;-70
2021/12/04 12:22:27;;;;;;;;;10.50;6.50;;;;;12.00;66.88;99672.69;5021855;28;45591;-70
2021/12/04 12:24:55;;;;;;;;;2.00;1.00;;;;;11.98;66.61;99679.09;5022119;28;45358;-70
2021/12/04 12:36:03;;;;;;;;;2.00;1.00;;;;;11.97;66.43;99721.00;5021746;28;45490;-70
2021/12/04 12:38:34;;;;;;;;;2.00;2.00;;;;;11.95;65.65;99725.59;5021571;28;45215;-70
2021/12/04 12:41:11;;;;;;;;;2.50;1.00;;;;;11.87;65.81;99733.97;5012640;28;46122;-69
2021/12/04 12:43:59;;;;;;;;;3.00;2.25;;;;;11.91;66.01;99747.19;5021081;28;45331;-69
2021/12/04 12:46:36;;;;;;;;;2.50;1.00;;;;;11.91;65.93;99750.78;5021680;28;45438;-70
2021/12/04 12:49:03;;;;;;;;;3.00;2.00;;;;;11.91;65.52;99747.19;5020100;28;45238;-70
2021/12/04 12:51:34;;;;;;;;;4.00;3.00;;;;;11.96;65.21;99743.38;5021273;28;45405;-70
2021/12/04 12:54:03;;;;;;;;;5.25;1.50;;;;;11.96;65.70;99754.06;5021515;28;45488;-70
2021/12/04 12:56:30;;;;;;;;;1.00;1.00;;;;;11.94;65.30;99761.28;5021420;28;45338;-70
2021/12/04 12:59:20;;;;;;;;;3.00;1.25;;;;;11.95;64.89;99756.81;5021191;28;45493;-70
2021/12/04 13:12:47;;;;;;;;;1.75;1.50;;;;;11.79;63.44;99764.75;5020659;28;45312;-70
2021/12/04 13:15:28;;;;;;;;;2.00;1.00;;;;;11.75;64.19;99766.72;5021097;28;45228;-70
2021/12/04 13:17:54;;;;;;;;;2.25;2.00;;;;;11.75;63.78;99769.41;5021286;28;45255;-70
2021/12/04 13:20:21;;;;;;;;;2.00;1.00;;;;;11.75;63.85;99771.22;5021021;28;45231;-70
2021/12/04 13:22:46;;;;;;;;;3.00;3.00;;;;;11.77;63.09;99753.28;5021079;28;45331;-70
2021/12/04 13:25:12;;;;;;;;;2.00;1.25;;;;;11.78;62.86;99763.91;5020759;28;45346;-70
2021/12/04 13:30:11;;;;;;;;;1.75;1.00;;;;;11.79;61.93;99773.63;5020680;28;45441;-70
2021/12/04 13:32:39;;;;;;;;;3.75;3.00;;;;;11.79;61.85;99775.44;5020744;28;45515;-70
2021/12/04 13:35:13;;;;;;;;;1.25;1.25;;;;;11.75;61.21;99777.41;5020632;28;45255;-70
2021/12/04 13:37:40;;;;;;;;;2.00;1.00;;;;;11.71;61.08;99785.69;5021004;28;45477;-70
2021/12/04 13:40:09;;;;;;;;;1.00;1.00;;;;;11.67;60.87;99790.31;5020353;28;45323;-70
2021/12/04 13:42:38;;;;;;;;;5.00;1.00;;;;;11.65;60.29;99779.72;5020438;28;46506;-71
2021/12/04 13:45:08;;;;;;;;;1.00;1.00;;;;;11.58;60.19;99778.31;5020439;28;45537;-70
2021/12/04 13:47:34;;;;;;;;;1.75;1.75;;;;;11.52;60.19;99770.59;5020604;28;45494;-70
2021/12/04 13:50:08;;;;;;;;;1.00;1.00;;;;;11.52;60.84;99775.94;5020243;28;45367;-70
2021/12/04 13:52:33;;;;;;;;;1.00;1.00;;;;;11.50;60.65;99762.66;5020233;28;46176;-71
2021/12/04 13:55:10;;;;;;;;;1.00;1.00;;;;;11.52;60.41;99759.06;5020302;28;45230;-70
2021/12/04 13:57:41;;;;;;;;;2.00;2.00;;;;;11.58;60.40;99777.47;5020400;28;45484;-70
2021/12/04 14:00:08;;;;;;;;;3.50;0.75;;;;;11.59;59.88;99766.66;5019986;28;45342;-70
2021/12/04 14:02:33;;;;;;;;;1.00;1.00;;;;;11.59;60.17;99765.81;5020207;28;45249;-70
2021/12/04 14:05:08;;;;;;;;;3.00;2.00;;;;;11.58;60.44;99769.44;5020378;28;46491;-70
2021/12/04 14:07:35;;;;;;;;;1.25;1.25;;;;;11.63;60.13;99780.75;5020393;28;45261;-70
2021/12/04 14:10:12;;;;;;;;;2.00;2.00;;;;;11.64;60.24;99772.66;5020213;28;45469;-70
2021/12/04 14:12:37;;;;;;;;;4.00;0.75;;;;;11.64;59.94;99778.00;5019573;28;47294;-70
2021/12/04 14:15:15;;;;;;;;;4.75;1.50;;;;;11.66;59.72;99778.78;5020202;28;45406;-70
2021/12/04 14:17:41;;;;;;;;;2.00;2.00;;;;;11.68;59.47;99784.03;5020168;28;45539;-70
2021/12/04 14:20:09;;;;;;;;;1.25;1.00;;;;;11.64;59.14;99786.03;5020113;28;45620;-70
2021/12/04 14:22:44;;;;;;;;;1.00;1.00;;;;;11.66;59.46;99793.94;5019936;28;46209;-70
2021/12/04 14:25:11;;;;;;;;;0.75;0.75;;;;;11.63;59.78;99799.47;5020128;28;45322;-70
2021/12/04 14:27:37;;;;;;;;;1.00;1.00;;;;;11.65;58.97;99801.09;5019811;28;45448;-70
2021/12/04 14:30:13;;;;;;;;;1.00;1.00;;;;;11.62;58.97;99803.91;5019851;28;45402;-70
2021/12/04 14:32:42;;;;;;;;;2.00;2.00;;;;;11.66;58.61;99813.53;5019870;28;46190;-70
2021/12/04 14:35:15;;;;;;;;;1.00;1.00;;;;;11.62;58.82;99813.75;5019741;28;45307;-70
2021/12/04 14:37:43;;;;;;;;;3.50;1.00;;;;;11.58;58.42;99817.53;5020203;28;45345;-70
2021/12/04 14:40:18;;;;;;;;;3.25;1.50;;;;;11.57;58.19;99826.50;5019527;28;45240;-70
2021/12/04 14:42:44;;;;;;;;;1.50;1.00;;;;;11.54;57.86;99818.63;5019674;28;46607;-70
2021/12/04 14:45:14;;;;;;;;;0.50;0.50;;;;;11.50;58.05;99833.97;5019580;28;45308;-70
2021/12/04 14:47:46;;;;;;;;;1.00;0.00;;;;;11.48;57.64;99839.38;5019866;28;45455;-70